• Join FlightAware (Why Join?)
  • Login
  • US Flag 
07:04AM EDT


 

Airport Tracker/Info


-or-


 

Live Flight TrackerFlight Track Log ✈ SWA2624 ✈ 19-Apr-2013 ✈ KABQ - KLAS

Flight Track Log - Related Links

Times and Time Zones

All times are in EDT time to prevent confusion due to time zone crossing. See the SWA2624 flight status page for this flight to view local times or setup timezone preferences in your user account.

Time Position Orientation Groundspeed Altitude Reporting Facility
EDT Latitude Longitude Course Direction KTS MPH feet Rate Location/Type
01:25AM 34.9953 -106.5839 189° South 227 261 8,200  Level Albuquerque Center
01:25AM 34.9939 -106.6103 266° West 224 258 9,400 2,400 Climbing Albuquerque Center
01:26AM 35.0136 -106.6936 286° West 244 281 11,900 2,640 Climbing Albuquerque Center
01:28AM 35.0356 -106.7992 284° West 306 352 14,800 2,820 Climbing Albuquerque Center
01:29AM 35.0636 -106.9192 286° West 339 390 17,700 3,360 Climbing Albuquerque Center
01:30AM 35.0936 -107.0539 285° West 366 421 21,600 3,180 Climbing Albuquerque Center
01:31AM 35.1056 -107.1742 277° West 372 428 24,200 2,460 Climbing Albuquerque Center
01:32AM 35.1175 -107.3056 276° West 396 456 26,600 2,280 Climbing Albuquerque Center
01:33AM 35.1322 -107.4361 278° West 392 451 28,900 2,760 Climbing Albuquerque Center
01:34AM 35.1458 -107.5753 277° West 389 448 32,200 2,580 Climbing Albuquerque Center
01:35AM 35.1592 -107.6903 278° West 367 422 34,200 1,680 Climbing Albuquerque Center
01:36AM 35.1706 -107.8072 277° West 362 417 35,700 1,680 Climbing Albuquerque Center
01:37AM 35.1853 -107.9444 278° West 363 418 37,600 1,200 Climbing Albuquerque Center
01:38AM 35.1969 -108.0622 277° West 363 418 38,200 720 Climbing Albuquerque Center
01:39AM 35.2094 -108.1842 277° West 372 428 39,100 840 Climbing Albuquerque Center
01:40AM 35.2239 -108.3253 277° West 374 430 40,000 420 Climbing Albuquerque Center
01:41AM 35.2361 -108.4472 277° West 375 432 40,000  Level Albuquerque Center
01:42AM 35.2478 -108.5706 277° West 379 436 40,000  Level Albuquerque Center
01:43AM 35.2600 -108.6931 277° West 379 436 40,000  Level Albuquerque Center
01:44AM 35.2739 -108.8369 277° West 380 437 40,000  Level Albuquerque Center
01:45AM 35.2861 -108.9603 277° West 380 437 40,000  Level Albuquerque Center
01:46AM 35.2967 -109.0825 276° West 378 435 40,000  Level Albuquerque Center
01:47AM 35.3103 -109.2239 277° West 375 432 40,000  Level Albuquerque Center
01:48AM 35.3219 -109.3483 277° West 379 436 40,000  Level Albuquerque Center
01:49AM 35.3325 -109.4719 276° West 380 437 40,000  Level Albuquerque Center
01:50AM 35.3428 -109.5936 276° West 376 433 40,000  Level Albuquerque Center
01:51AM 35.3547 -109.7375 276° West 379 436 40,000  Level Albuquerque Center
01:52AM 35.3667 -109.8617 277° West 383 441 40,000  Level Albuquerque Center
01:53AM 35.3772 -109.9833 276° West 378 435 40,000  Level Albuquerque Center
01:54AM 35.3861 -110.1250 274° West 378 435 40,000  Level Albuquerque Center
01:55AM 35.3947 -110.2450 275° West 374 430 40,000  Level Albuquerque Center
01:56AM 35.4056 -110.3669 276° West 374 430 40,000  Level Albuquerque Center
01:57AM 35.4153 -110.4886 276° West 375 432 40,000  Level Albuquerque Center
01:58AM 35.4264 -110.6308 276° West 375 432 40,000 -480 Level Albuquerque Center
01:59AM 35.4364 -110.7511 276° West 373 429 39,100 -900 Descending Albuquerque Center
02:00AM 35.4444 -110.8703 275° West 368 423 38,200 -1,020 Descending Albuquerque Center
02:01AM 35.4564 -111.0128 276° West 373 429 37,100 -1,020 Descending Albuquerque Center
02:02AM 35.4656 -111.1275 276° West 361 415 36,200 -900 Descending Albuquerque Center
02:03AM 35.4744 -111.2397 276° West 351 404 35,300 -1,020 Descending Albuquerque Center
02:04AM 35.4844 -111.3719 275° West 349 402 34,200 -660 Descending Albuquerque Center
02:05AM 35.4928 -111.4861 275° West 373 429 34,000 -120 Descending Albuquerque Center
02:06AM 35.5011 -111.6058 275° West 360 414 34,000  Level Albuquerque Center
02:07AM 35.5092 -111.7253 275° West 355 409 34,000  Level Albuquerque Center
02:08AM 35.5181 -111.8456 275° West 355 409 34,000  Level Albuquerque Center
02:09AM 35.5256 -111.9656 274° West 355 409 34,000  Level Albuquerque Center
02:10AM 35.5339 -112.0831 275° West 350 403 34,000  Level Albuquerque Center
02:11AM 35.5422 -112.2025 275° West 351 404 34,000  Level Albuquerque Center
02:12AM 35.5508 -112.3217 275° West 353 406 34,000  Level Albuquerque Center
02:13AM 35.5600 -112.4639 275° West 351 404 34,000  Level Los Angeles Center
02:14AM 35.5675 -112.5844 274° West 355 409 34,000  Level Los Angeles Center
02:15AM 35.5758 -112.7094 275° West 353 406 34,000  Level Los Angeles Center
02:16AM 35.5833 -112.8297 274° West 353 406 34,000  Level Los Angeles Center
02:17AM 35.5911 -112.9492 275° West 355 409 34,000 -480 Level Los Angeles Center
02:18AM 35.5975 -113.0694 274° West 353 406 33,100 -960 Descending Los Angeles Center
02:19AM 35.6044 -113.1903 274° West 353 406 32,100 -1,020 Descending Los Angeles Center
02:20AM 35.6108 -113.2986 274° West 359 413 31,100 -1,860 Descending Los Angeles Center
02:21AM 35.6192 -113.4406 274° West 351 404 28,400 -2,400 Descending Los Angeles Center
02:22AM 35.6261 -113.5581 274° West 347 399 26,300 -2,220 Descending Los Angeles Center
02:23AM 35.6433 -113.6781 280° West 355 409 23,900 -2,400 Descending Los Angeles Center
02:24AM 35.6600 -113.7931 280° West 346 398 21,500 -2,340 Descending Los Angeles Center
02:25AM 35.6764 -113.9047 280° West 337 388 19,200 -1,740 Descending Los Angeles Center
02:26AM 35.6919 -114.0142 280° West 330 380 17,700 -1,800 Descending Los Angeles Center
02:27AM 35.7094 -114.1444 279° West 323 372 15,200 -2,460 Descending Los Angeles Center
02:28AM 35.7242 -114.2256 283° West 337 388 13,700 -2,220 Descending Los Angeles Center
02:29AM 35.7306 -114.2925 277° West 329 379 12,500 -1,260 Descending Los Angeles Center
02:29AM 35.7381 -114.3567 278° West 316 364 12,000 -900 Descending Los Angeles Center
02:30AM 35.7594 -114.3917 307° West 287 330 11,500 -1,020 Descending Los Angeles Center
02:30AM 35.7908 -114.4206 323° Northwest 278 320 11,000 -1,020 Descending Los Angeles Center
02:31AM 35.8594 -114.4972 318° Northwest 274 315 9,800 -1,140 Descending Los Angeles Center
02:32AM 35.8789 -114.5186 318° Northwest 274 315 9,500 -1,020 Descending Los Angeles Center
02:32AM 35.9156 -114.5567 320° Northwest 272 313 8,800 -1,020 Descending Los Angeles Center
02:33AM 35.9317 -114.5806 310° West 270 311 8,500 -1,020 Descending Los Angeles Center
02:33AM 35.9556 -114.6317 300° West 266 306 7,800 -900 Descending Los Angeles Center
02:34AM 35.9847 -114.7181 293° West 270 311 7,000 -420 Descending Los Angeles Center
02:35AM 36.0172 -114.8014 296° West 270 311 7,000 -240 Level Los Angeles Center
02:36AM 36.0328 -114.8419 295° West 267 307 6,700 -600 Descending Los Angeles Center
02:36AM 36.0492 -114.8828 296° West 267 307 6,400 -540 Descending Los Angeles Center
02:37AM 36.0783 -114.9586 295° West 258 297 5,900 -540 Descending Los Angeles Center
02:38AM 36.0739 -114.9800 256° West 194 223 5,700 -1,140 Descending Los Angeles Center
02:38AM 36.0742 -115.0103 271° West 190 219 4,800 -1,800 Descending Los Angeles Center
02:39AM 36.0733 -115.0467 268° West 150 173 3,400 -1,740 Descending Los Angeles Center
02:39AM 36.0744 -115.0611 275° West 162 186 3,100 -840 Descending Los Angeles Center
02:40AM 36.0725 -115.0922 266° West 132 152 2,600 -720 Descending Los Angeles Center
02:40AM 36.0739 -115.1047 278° West 145 167 2,400 -540 Descending Los Angeles Center
02:42AM 36.0667 -115.1500 270° West  Level FlightAware Approximate
02:49AM 36.0801 -115.1523 270° West  Level Estimated